Time;durP1;ratioP1;P1;durP2;ratioP2;P2;SDS_P1;SDS_P2;PMS_P1;PMS_P2;Temp;Humidity;BMP_temperature;BMP_pressure;BME280_temperature;BME280_humidity;BME280_pressure;Samples;Min_cycle;Max_cycle;Signal;HPM_P1;HPM_P2
2023/02/15 00:01:14;;;;;;;188.45;67.47;;;;;;;3.82;100.00;102860.06;5033991;28;20344;-42
2023/02/15 00:03:39;;;;;;;191.43;65.15;;;;;;;3.80;100.00;102861.97;5027260;28;20448;-44
2023/02/15 00:06:05;;;;;;;196.57;65.85;;;;;;;3.82;100.00;102859.19;5014243;28;20115;-42
2023/02/15 00:08:31;;;;;;;188.60;67.43;;;;;;;3.82;100.00;102864.53;5031685;28;20041;-43
2023/02/15 00:11:13;;;;;;;187.30;66.95;;;;;;;3.87;100.00;102859.78;5033656;28;20048;-43
2023/02/15 00:13:42;;;;;;;175.98;64.47;;;;;;;3.84;100.00;102844.84;5032150;28;20028;-43
2023/02/15 00:16:08;;;;;;;;;;;;;;;3.84;100.00;102836.00;5033965;28;20468;-43
2023/02/15 00:18:33;;;;;;;167.68;61.35;;;;;;;3.82;100.00;102843.22;5028534;28;19913;-42
2023/02/15 00:21:03;;;;;;;181.55;67.90;;;;;;;3.82;100.00;102833.44;5013662;28;20034;-43
2023/02/15 00:23:28;;;;;;;176.00;64.47;;;;;;;3.78;100.00;102836.38;5016697;28;20037;-44
2023/02/15 00:26:06;;;;;;;177.02;63.83;;;;;;;3.77;100.00;102838.19;5033553;28;20025;-44
2023/02/15 00:28:31;;;;;;;186.32;64.63;;;;;;;3.74;100.00;102836.53;5033294;28;20036;-44
2023/02/15 00:31:08;;;;;;;179.55;64.22;;;;;;;3.75;100.00;102832.06;5033556;28;20022;-43
2023/02/15 00:33:34;;;;;;;193.73;64.47;;;;;;;3.72;100.00;102829.59;5032512;28;20037;-44
2023/02/15 00:36:00;;;;;;;180.15;63.10;;;;;;;3.71;100.00;102818.09;5024530;28;20088;-42
2023/02/15 00:38:27;;;;;;;187.73;64.03;;;;;;;3.74;100.00;102825.03;5029971;28;20029;-43
2023/02/15 00:40:57;;;;;;;191.13;65.20;;;;;;;3.76;100.00;102833.78;5028020;28;20025;-42
2023/02/15 00:43:22;;;;;;;219.80;70.55;;;;;;;3.76;100.00;102827.59;5015776;28;20030;-44
2023/02/15 00:45:47;;;;;;;190.27;65.47;;;;;;;3.72;100.00;102826.94;5033046;28;20087;-42
2023/02/15 00:48:13;;;;;;;194.68;66.63;;;;;;;3.71;100.00;102830.53;5032546;28;20104;-43
2023/02/15 00:50:38;;;;;;;195.48;67.53;;;;;;;3.71;100.00;102822.53;5033009;28;20380;-43
2023/02/15 00:53:04;;;;;;;184.25;68.35;;;;;;;3.66;100.00;102822.81;5031928;28;20075;-42
2023/02/15 00:55:29;;;;;;;194.68;68.28;;;;;;;3.65;100.00;102821.09;5032561;28;20056;-41
2023/02/15 00:57:54;;;;;;;178.60;64.68;;;;;;;3.67;100.00;102819.19;5032350;28;20484;-44
2023/02/15 01:00:20;;;;;;;172.60;66.57;;;;;;;3.68;100.00;102823.56;5031165;28;20033;-44
2023/02/15 01:02:45;;;;;;;172.13;64.60;;;;;;;3.67;100.00;102819.19;5032419;28;20072;-43
2023/02/15 01:05:10;;;;;;;184.30;67.40;;;;;;;3.65;100.00;102823.75;5028038;28;20064;-44
2023/02/15 01:07:36;;;;;;;178.15;65.15;;;;;;;3.67;100.00;102813.88;5032578;28;20079;-44
2023/02/15 01:10:01;;;;;;;179.27;63.47;;;;;;;3.68;100.00;102815.56;5016260;28;20018;-44
2023/02/15 01:12:26;;;;;;;175.40;65.00;;;;;;;3.66;100.00;102817.50;5012631;28;20041;-44
2023/02/15 01:14:52;;;;;;;176.20;65.47;;;;;;;3.65;100.00;102813.09;5018178;28;20040;-42
2023/02/15 01:17:17;;;;;;;160.73;63.05;;;;;;;3.66;100.00;102814.84;5032579;28;20091;-42
2023/02/15 01:19:43;;;;;;;172.95;65.00;;;;;;;3.65;100.00;102809.59;5031585;28;20042;-43
2023/02/15 01:22:08;;;;;;;168.13;64.38;;;;;;;3.64;100.00;102815.88;5032188;28;20121;-45
2023/02/15 01:24:33;;;;;;;173.10;65.07;;;;;;;3.62;100.00;102813.28;5020353;28;20036;-42
2023/02/15 01:26:59;;;;;;;176.10;63.35;;;;;;;3.58;100.00;102803.78;5021708;28;20034;-43
2023/02/15 01:29:24;;;;;;;176.10;62.83;;;;;;;3.52;100.00;102804.94;5031470;28;20344;-44
2023/02/15 01:31:49;;;;;;;160.40;62.05;;;;;;;3.37;100.00;102794.31;5031994;28;20392;-43
2023/02/15 01:34:15;;;;;;;172.52;63.33;;;;;;;3.27;100.00;102794.84;5024301;28;20044;-42
2023/02/15 01:36:40;;;;;;;163.77;64.00;;;;;;;3.25;100.00;102791.41;5032427;28;20021;-43
2023/02/15 01:39:07;;;;;;;173.63;66.05;;;;;;;3.19;100.00;102783.78;5031075;28;20029;-44
2023/02/15 01:41:33;;;;;;;175.05;64.78;;;;;;;3.19;100.00;102790.91;5032298;28;20025;-43
2023/02/15 01:44:00;;;;;;;171.60;62.38;;;;;;;3.16;100.00;102781.31;5031289;28;20107;-43
2023/02/15 01:46:38;;;;;;;176.17;62.77;;;;;;;3.17;100.00;102782.16;5022896;28;20022;-43
2023/02/15 01:49:10;;;;;;;161.35;62.00;;;;;;;3.12;100.00;102781.56;5018570;28;20041;-43
2023/02/15 01:51:36;;;;;;;167.35;63.83;;;;;;;3.07;100.00;102785.31;5030190;28;20032;-44
2023/02/15 01:54:10;;;;;;;160.65;61.10;;;;;;;3.10;100.00;102781.63;5028595;28;20034;-44
2023/02/15 01:56:37;;;;;;;162.80;61.63;;;;;;;3.02;100.00;102779.38;5030993;28;20029;-44
2023/02/15 01:59:07;;;;;;;164.45;61.72;;;;;;;3.00;100.00;102783.06;5021599;28;20547;-44
2023/02/15 02:01:33;;;;;;;157.95;61.90;;;;;;;2.98;100.00;102777.00;5037972;28;20344;-43
2023/02/15 02:04:01;;;;;;;171.77;63.30;;;;;;;2.90;100.00;102771.22;5023358;28;20072;-43
2023/02/15 02:06:27;;;;;;;162.43;61.75;;;;;;;2.90;100.00;102773.88;5029207;28;20029;-43
2023/02/15 02:08:56;;;;;;;160.77;60.92;;;;;;;2.93;100.00;102763.09;5025679;28;20040;-43
2023/02/15 02:11:21;;;;;;;166.88;63.90;;;;;;;2.91;100.00;102764.97;5011006;28;20453;-42
2023/02/15 02:13:47;;;;;;;167.68;62.53;;;;;;;2.89;100.00;102764.19;5022192;28;20026;-42
2023/02/15 02:16:49;;;;;;;172.18;63.25;;;;;;;2.90;100.00;102763.25;5030708;28;20048;-43
2023/02/15 02:19:51;;;;;;;161.32;61.63;;;;;;;2.90;100.00;102756.16;5013804;28;20042;-43
2023/02/15 02:22:51;;;;;;;155.63;59.50;;;;;;;2.84;100.00;102759.13;5040213;28;20116;-44
2023/02/15 02:25:47;;;;;;;160.05;57.55;;;;;;;2.78;100.00;102744.38;5011793;28;20049;-43
2023/02/15 02:28:50;;;;;;;155.88;61.33;;;;;;;2.73;100.00;102742.91;5011095;28;20026;-43
2023/02/15 02:31:39;;;;;;;150.80;57.92;;;;;;;2.69;100.00;102739.56;5019899;28;20075;-43
2023/02/15 02:34:24;;;;;;;150.02;57.83;;;;;;;2.66;100.00;102730.91;5028814;28;20049;-43
2023/02/15 02:37:03;;;;;;;160.73;58.22;;;;;;;2.68;100.00;102732.53;5029510;28;20112;-43
2023/02/15 02:39:28;;;;;;;151.35;56.78;;;;;;;2.62;100.00;102730.22;5027860;28;20025;-44
2023/02/15 02:42:36;;;;;;;155.20;58.75;;;;;;;2.57;100.00;102730.47;5029417;28;20030;-42
2023/02/15 02:45:17;;;;;;;156.70;57.67;;;;;;;2.56;100.00;102719.94;5017105;28;20447;-43
2023/02/15 02:47:53;;;;;;;154.80;57.38;;;;;;;2.59;100.00;102733.91;5018433;28;20079;-43
2023/02/15 02:50:27;;;;;;;143.07;53.92;;;;;;;2.60;100.00;102722.31;5025114;28;20460;-42
2023/02/15 02:52:55;;;;;;;146.05;56.28;;;;;;;2.63;100.00;102713.31;5015519;28;20039;-42
2023/02/15 02:55:29;;;;;;;150.30;59.10;;;;;;;2.57;100.00;102719.81;5012464;28;20143;-44
2023/02/15 02:58:08;;;;;;;144.00;54.70;;;;;;;2.50;100.00;102707.84;5015545;28;20021;-43
2023/02/15 03:00:46;;;;;;;141.23;54.78;;;;;;;2.49;100.00;102713.22;5027990;28;20037;-43
2023/02/15 03:03:14;;;;;;;147.68;55.75;;;;;;;2.47;100.00;102699.16;5010791;28;20041;-42
2023/02/15 03:05:44;;;;;;;143.85;55.50;;;;;;;2.46;100.00;102705.41;5023245;28;20021;-42
2023/02/15 03:08:10;;;;;;;143.10;56.75;;;;;;;2.48;100.00;102706.19;4996811;28;20477;-43
2023/02/15 03:10:38;;;;;;;148.27;56.22;;;;;;;2.44;100.00;102704.63;5029390;28;20187;-44
2023/02/15 03:13:04;;;;;;;140.57;52.30;;;;;;;2.47;100.00;102704.47;5028878;28;20026;-45
2023/02/15 03:16:25;;;;;;;153.60;56.50;;;;;;;2.50;100.00;102701.63;5011362;28;20033;-43
2023/02/15 03:18:23;;;;;;;157.10;55.78;;;;;;;2.57;100.00;102695.06;5009562;28;20455;-42
2023/02/15 03:20:49;;;;;;;153.63;55.92;;;;;;;2.61;100.00;102701.94;5008880;28;20069;-42
2023/02/15 03:23:18;;;;;;;158.68;57.90;;;;;;;2.61;100.00;102696.63;5008989;28;20115;-44
2023/02/15 03:25:46;;;;;;;155.13;58.45;;;;;;;2.59;100.00;102693.16;5028805;28;20037;-43
2023/02/15 03:28:20;;;;;;;151.27;56.92;;;;;;;2.58;100.00;102688.78;5028750;28;20113;-43
2023/02/15 03:30:48;;;;;;;142.50;53.97;;;;;;;2.52;100.00;102689.13;5029346;28;20041;-43
2023/02/15 03:33:14;;;;;;;145.98;54.67;;;;;;;2.47;100.00;102685.88;5027871;28;20045;-43
2023/02/15 03:35:48;;;;;;;136.07;53.85;;;;;;;2.45;100.00;102682.44;5008857;28;20552;-43
2023/02/15 03:38:18;;;;;;;146.13;54.38;;;;;;;2.37;100.00;102675.75;5011747;28;20424;-43
2023/02/15 03:43:37;;;;;;;136.40;51.75;;;;;;;2.31;100.00;102681.38;5014760;28;20160;-44
2023/02/15 03:46:13;;;;;;;134.60;53.88;;;;;;;2.18;100.00;102670.53;5011605;28;20030;-43
2023/02/15 03:48:47;;;;;;;139.30;52.97;;;;;;;2.06;100.00;102662.41;5028882;28;20392;-43
2023/02/15 03:51:35;;;;;;;139.00;51.10;;;;;;;1.96;100.00;102654.91;5027840;28;20080;-43
2023/02/15 03:54:38;;;;;;;142.07;54.83;;;;;;;1.94;100.00;102650.63;5023065;28;20033;-44
2023/02/15 04:02:38;;;;;;;141.05;53.78;;;;;;;1.93;100.00;102655.09;5028937;28;20087;-43
2023/02/15 04:05:04;;;;;;;127.75;54.05;;;;;;;1.95;100.00;102650.56;5008537;28;20034;-43
2023/02/15 04:07:29;;;;;;;140.68;54.67;;;;;;;1.90;100.00;102644.63;5015868;28;20033;-43
2023/02/15 04:12:39;;;;;;;136.95;51.47;;;;;;;1.88;100.00;102646.50;5016187;28;20092;-45
2023/02/15 04:17:48;;;;;;;133.63;52.42;;;;;;;1.85;100.00;102635.19;5009374;28;20048;-43
2023/02/15 04:25:41;;;;;;;125.25;50.95;;;;;;;1.77;100.00;102627.63;5010106;28;20041;-42
2023/02/15 04:28:07;;;;;;;125.63;50.58;;;;;;;1.76;100.00;102631.22;5010659;28;20112;-42
2023/02/15 04:30:33;;;;;;;130.82;52.70;;;;;;;1.78;100.00;102637.31;5011956;28;20030;-42
2023/02/15 04:32:58;;;;;;;130.95;51.28;;;;;;;1.78;100.00;102637.31;5010276;28;20050;-41
2023/02/15 04:35:24;;;;;;;123.22;49.88;;;;;;;1.74;100.00;102626.00;5011065;28;20499;-42
2023/02/15 04:37:49;;;;;;;126.78;50.08;;;;;;;1.73;100.00;102626.06;5009800;28;20393;-42
2023/02/15 04:40:15;;;;;;;127.90;50.65;;;;;;;1.75;100.00;102634.81;5013314;28;20160;-42
2023/02/15 04:42:41;;;;;;;128.50;50.95;;;;;;;1.78;100.00;102637.31;5018316;28;20159;-42
2023/02/15 04:45:07;;;;;;;117.10;47.00;;;;;;;1.81;100.00;102629.16;5021404;28;20172;-41
2023/02/15 04:47:32;;;;;;;117.03;46.58;;;;;;;1.81;100.00;102623.84;5022478;28;20471;-42
2023/02/15 04:49:58;;;;;;;126.35;49.88;;;;;;;1.78;100.00;102626.69;5032469;28;20037;-43
2023/02/15 04:52:23;;;;;;;122.85;49.10;;;;;;;1.78;100.00;102626.69;5033888;28;20032;-42
2023/02/15 04:54:49;;;;;;;119.68;49.08;;;;;;;1.77;100.00;102626.78;5035519;28;20041;-44
2023/02/15 04:57:14;;;;;;;122.35;49.38;;;;;;;1.78;100.00;102633.78;5029508;28;20111;-42
2023/02/15 04:59:40;;;;;;;126.63;49.08;;;;;;;1.80;100.00;102629.28;5025304;28;20033;-42
2023/02/15 05:02:05;;;;;;;124.05;49.10;;;;;;;1.84;100.00;102634.31;5019811;28;20068;-43
2023/02/15 05:04:31;;;;;;;115.03;48.42;;;;;;;1.78;100.00;102629.34;5028301;28;20439;-41
2023/02/15 05:06:56;;;;;;;124.93;45.80;;;;;;;1.80;100.00;102634.56;5018493;28;20109;-42
2023/02/15 05:09:21;;;;;;;114.40;46.25;;;;;;;1.81;100.00;102617.69;5030966;28;20129;-42
2023/02/15 05:11:47;;;;;;;117.40;47.67;;;;;;;1.80;100.00;102613.34;5020884;28;20042;-43
2023/02/15 05:14:12;;;;;;;117.45;46.22;;;;;;;1.77;100.00;102619.66;5030574;28;20037;-43
2023/02/15 05:16:38;;;;;;;120.95;47.70;;;;;;;1.74;100.00;102612.72;5031877;28;20129;-43
2023/02/15 05:19:03;;;;;;;117.25;48.53;;;;;;;1.77;100.00;102621.47;5025401;28;20136;-42
2023/02/15 05:21:29;;;;;;;116.40;47.33;;;;;;;1.71;100.00;102620.84;5031761;28;20480;-41
2023/02/15 05:23:54;;;;;;;129.43;47.53;;;;;;;1.73;100.00;102626.91;5030529;28;20036;-42
2023/02/15 05:29:06;;;;;;;120.28;46.13;;;;;;;1.75;100.00;102609.13;5031585;28;20055;-41
2023/02/15 05:31:32;;;;;;;125.55;48.58;;;;;;;1.73;100.00;102610.13;5031710;28;20028;-42
2023/02/15 05:33:58;;;;;;;118.03;47.75;;;;;;;1.73;100.00;102607.47;5019842;28;20046;-44
2023/02/15 05:36:23;;;;;;;119.22;46.92;;;;;;;1.74;100.00;102603.91;5022345;28;20026;-42
2023/02/15 05:38:49;;;;;;;131.15;51.75;;;;;;;1.74;100.00;102603.91;5034286;28;20144;-43
2023/02/15 05:41:14;;;;;;;131.23;50.08;;;;;;;1.77;100.00;102605.53;5019214;28;20168;-42
2023/02/15 05:43:40;;;;;;;112.15;46.65;;;;;;;1.84;100.00;102591.84;5031569;28;20065;-41
2023/02/15 05:46:06;;;;;;;106.95;44.08;;;;;;;1.81;100.00;102589.34;5031033;28;20121;-42
2023/02/15 05:48:32;;;;;;;113.60;46.30;;;;;;;1.81;100.00;102588.50;5031625;28;20440;-42
2023/02/15 05:51:07;;;;;;;118.35;46.15;;;;;;;1.79;100.00;102587.72;5028243;28;20396;-42
2023/02/15 05:53:35;;;;;;;115.55;47.53;;;;;;;1.77;100.00;102585.16;5019676;28;20025;-43
2023/02/15 05:56:02;;;;;;;108.05;44.67;;;;;;;1.75;100.00;102581.72;5037212;28;20059;-42
2023/02/15 05:58:35;;;;;;;124.68;47.97;;;;;;;1.72;100.00;102584.56;5043498;28;20044;-42
2023/02/15 06:01:13;;;;;;;114.85;47.50;;;;;;;1.73;100.00;102580.94;5016893;28;20038;-42
2023/02/15 06:03:39;;;;;;;128.20;49.40;;;;;;;1.69;100.00;102577.59;5026025;28;20360;-44
2023/02/15 06:06:06;;;;;;;132.07;50.00;;;;;;;1.65;100.00;102584.00;5031463;28;20097;-43
2023/02/15 06:08:32;;;;;;;123.43;50.15;;;;;;;1.65;100.00;102585.81;5031444;28;20017;-42
2023/02/15 06:10:57;;;;;;;140.00;48.60;;;;;;;1.65;100.00;102591.13;5031513;28;20104;-43
2023/02/15 06:13:23;;;;;;;119.25;46.97;;;;;;;1.64;100.00;102592.91;5031229;28;20464;-42
2023/02/15 06:15:48;;;;;;;133.45;50.00;;;;;;;1.68;100.00;102593.59;5030728;28;20091;-43
2023/02/15 06:18:13;;;;;;;124.97;48.53;;;;;;;1.68;100.00;102596.25;5018960;28;20030;-42
2023/02/15 06:20:39;;;;;;;125.68;49.92;;;;;;;1.68;100.00;102590.94;5015653;28;20021;-42
2023/02/15 06:23:04;;;;;;;133.18;50.13;;;;;;;1.64;100.00;102594.72;5010879;28;20295;-43
2023/02/15 06:25:29;;;;;;;126.38;50.25;;;;;;;1.66;100.00;102600.78;5038390;28;20140;-42
2023/02/15 06:27:55;;;;;;;130.70;49.35;;;;;;;1.66;100.00;102598.13;5022268;28;20024;-43
2023/02/15 06:30:20;;;;;;;126.15;48.90;;;;;;;1.67;100.00;102598.06;5013892;28;21009;-42
2023/02/15 06:32:45;;;;;;;127.88;49.75;;;;;;;1.67;100.00;102602.50;5017419;28;20088;-45
2023/02/15 06:35:11;;;;;;;129.18;47.88;;;;;;;1.67;100.00;102603.38;5028818;28;20443;-42
2023/02/15 06:37:36;;;;;;;120.28;48.13;;;;;;;1.66;100.00;102598.13;5021439;28;20024;-44
2023/02/15 06:40:03;;;;;;;133.63;50.08;;;;;;;1.70;100.00;102594.38;5026641;28;20021;-44
2023/02/15 06:42:29;;;;;;;129.75;47.97;;;;;;;1.73;100.00;102589.75;5026234;28;20480;-45
2023/02/15 06:44:54;;;;;;;137.32;48.47;;;;;;;1.69;100.00;102592.69;5031090;28;20099;-43
2023/02/15 06:47:20;;;;;;;132.18;49.25;;;;;;;1.68;100.00;102593.59;5030751;28;20037;-43
2023/02/15 06:49:45;;;;;;;131.48;49.13;;;;;;;1.69;100.00;102595.34;5027522;28;20445;-43
2023/02/15 06:52:10;;;;;;;139.20;50.75;;;;;;;1.72;100.00;102590.72;5015718;28;20105;-44
2023/02/15 06:54:36;;;;;;;123.75;49.38;;;;;;;1.72;100.00;102589.84;5017018;28;20021;-42
2023/02/15 06:57:01;;;;;;;133.68;49.33;;;;;;;1.70;100.00;102584.63;5020337;28;20118;-43
2023/02/15 06:59:26;;;;;;;131.70;49.88;;;;;;;1.75;100.00;102581.72;5019007;28;20038;-44
2023/02/15 07:01:52;;;;;;;157.48;51.20;;;;;;;1.71;100.00;102582.81;5015118;28;20033;-43
2023/02/15 07:04:17;;;;;;;185.75;54.78;;;;;;;1.71;100.00;102580.16;5018063;28;20061;-43
2023/02/15 07:06:43;;;;;;;162.57;49.58;;;;;;;1.70;100.00;102579.31;5024914;28;20037;-42
2023/02/15 07:09:08;;;;;;;189.82;52.22;;;;;;;1.75;100.00;102582.56;5016140;28;20117;-43
2023/02/15 07:14:18;;;;;;;175.25;52.10;;;;;;;1.85;100.00;102572.31;5013704;28;20487;-43
2023/02/15 07:16:43;;;;;;;155.10;50.03;;;;;;;1.83;100.00;102568.91;5014343;28;20030;-42
2023/02/15 07:19:09;;;;;;;139.15;47.92;;;;;;;1.90;100.00;102572.09;5010560;28;20034;-44
2023/02/15 07:21:35;;;;;;;133.80;48.97;;;;;;;1.95;100.00;102573.56;5011253;28;20022;-43
2023/02/15 07:24:00;;;;;;;141.63;49.92;;;;;;;2.04;100.00;102574.00;5010809;28;20493;-43
2023/02/15 07:26:26;;;;;;;133.32;53.17;;;;;;;2.09;100.00;102566.63;5019836;28;20025;-43
2023/02/15 07:28:51;;;;;;;135.75;52.97;;;;;;;2.18;100.00;102569.59;5015068;28;20079;-43
2023/02/15 07:31:16;;;;;;;132.30;52.83;;;;;;;2.36;100.00;102569.53;5004171;28;20038;-44
2023/02/15 07:33:42;;;;;;;132.15;50.60;;;;;;;2.52;100.00;102573.03;5006021;28;20127;-44
2023/02/15 07:36:09;;;;;;;127.15;50.67;;;;;;;2.62;100.00;102573.38;5024109;28;20033;-44
2023/02/15 07:38:39;;;;;;;123.80;48.30;;;;;;;2.77;100.00;102575.16;5020317;28;20168;-45
2023/02/15 07:41:06;;;;;;;126.47;50.72;;;;;;;2.92;100.00;102576.06;5023365;28;20497;-44
2023/02/15 07:43:34;;;;;;;128.60;50.17;;;;;;;2.95;100.00;102575.03;5020226;28;20132;-43
2023/02/15 07:46:00;;;;;;;130.80;49.47;;;;;;;2.90;100.00;102577.09;5019346;28;20041;-43
2023/02/15 07:48:26;;;;;;;118.25;47.97;;;;;;;3.06;100.00;102577.94;5020456;28;20064;-44
2023/02/15 07:50:52;;;;;;;119.03;47.50;;;;;;;3.20;100.00;102575.28;5020463;28;20058;-44
2023/02/15 07:53:17;;;;;;;126.68;50.78;;;;;;;3.29;100.00;102568.56;5023776;28;20029;-45
2023/02/15 07:55:43;;;;;;;124.10;48.65;;;;;;;3.42;100.00;102568.69;5023591;28;20021;-44
2023/02/15 07:58:08;;;;;;;120.57;47.00;;;;;;;3.89;100.00;102559.56;5024177;28;20079;-44
2023/02/15 08:00:56;;;;;;;112.63;45.83;;;;;;;4.00;100.00;102554.41;5022512;28;20033;-43
2023/02/15 08:03:19;;;;;;;119.88;47.63;;;;;;;4.17;100.00;102559.53;5022812;28;20041;-44
2023/02/15 08:05:44;;;;;;;115.03;48.22;;;;;;;4.29;100.00;102554.38;5022365;28;20044;-45
2023/02/15 08:08:29;;;;;;;121.57;45.70;;;;;;;4.45;100.00;102557.78;5020941;28;20041;-45
2023/02/15 08:13:55;;;;;;;109.40;45.97;;;;;;;4.82;100.00;102540.19;5017214;28;20165;-42
2023/02/15 08:16:24;;;;;;;116.25;46.92;;;;;;;5.07;100.00;102538.53;5021060;28;20035;-45
2023/02/15 08:18:50;;;;;;;103.53;43.55;;;;;;;5.42;100.00;102536.09;5020995;28;20502;-42
2023/02/15 08:21:15;;;;;;;108.07;44.90;;;;;;;5.84;100.00;102530.50;5025392;28;20064;-44
2023/02/15 08:23:40;;;;;;;103.35;45.25;;;;;;;6.08;100.00;102520.78;5024624;28;20026;-42
2023/02/15 08:26:06;;;;;;;99.53;44.25;;;;;;;6.31;100.00;102523.56;5023169;28;20510;-42
2023/02/15 08:28:31;;;;;;;107.65;45.90;;;;;;;6.20;100.00;102507.47;5025495;28;20405;-43
2023/02/15 08:31:08;;;;;;;98.90;41.80;;;;;;;6.21;100.00;102507.34;5026693;28;20120;-42
2023/02/15 08:33:34;;;;;;;108.72;44.55;;;;;;;6.48;100.00;102504.47;5023611;28;20049;-43
2023/02/15 08:36:10;;;;;;;110.80;42.22;;;;;;;6.62;100.00;102506.09;5021956;28;20025;-44
2023/02/15 08:38:36;;;;;;;96.60;42.65;;;;;;;6.67;100.00;102505.75;5026445;28;20041;-43
2023/02/15 08:41:13;;;;;;;123.18;47.00;;;;;;;7.12;100.00;102506.75;5023510;28;20033;-42
2023/02/15 08:43:39;;;;;;;103.20;44.08;;;;;;;7.41;100.00;102508.97;5025745;28;20611;-44
2023/02/15 08:46:06;;;;;;;107.55;45.30;;;;;;;8.04;100.00;102502.13;5025812;28;20120;-42
2023/02/15 08:48:31;;;;;;;103.55;45.72;;;;;;;8.05;100.00;102502.97;5024939;28;20036;-46
2023/02/15 08:50:56;;;;;;;110.60;45.15;;;;;;;7.89;100.00;102506.88;5024064;28;20037;-44
2023/02/15 08:53:22;;;;;;;120.32;49.05;;;;;;;7.58;100.00;102504.97;5023814;28;20477;-44
2023/02/15 08:55:55;;;;;;;104.28;44.97;;;;;;;8.18;100.00;102511.72;5022956;28;20453;-43
2023/02/15 08:58:21;;;;;;;107.50;45.63;;;;;;;8.73;100.00;102509.03;5024819;28;20432;-43
2023/02/15 09:00:46;;;;;;;119.03;46.78;;;;;;;9.33;100.00;102495.84;5022411;28;20021;-46
2023/02/15 09:03:11;;;;;;;117.85;46.78;;;;;;;9.95;100.00;102491.28;5022772;28;20438;-44
2023/02/15 09:05:37;;;;;;;118.32;46.90;;;;;;;10.24;100.00;102496.72;5024712;28;20481;-45
2023/02/15 09:08:02;;;;;;;111.30;47.75;;;;;;;9.99;100.00;102487.34;5024950;28;20048;-43
2023/02/15 09:10:27;;;;;;;123.75;48.30;;;;;;;10.35;100.00;102488.59;5021265;28;20132;-44
2023/02/15 09:12:53;;;;;;;104.03;47.10;;;;;;;10.03;100.00;102488.75;5023768;28;20520;-44
2023/02/15 09:15:18;;;;;;;119.63;48.63;;;;;;;10.51;100.00;102486.19;5023070;28;20417;-44
2023/02/15 09:17:43;;;;;;;115.95;47.35;;;;;;;10.96;100.00;102482.88;5023221;28;20034;-43
2023/02/15 09:20:09;;;;;;;119.32;51.13;;;;;;;10.90;100.00;102478.09;5023358;28;20025;-44
2023/02/15 09:22:34;;;;;;;119.55;48.90;;;;;;;11.29;100.00;102482.50;5026153;28;20622;-43
2023/02/15 09:24:59;;;;;;;126.18;51.78;;;;;;;11.39;100.00;102477.94;5024951;28;20660;-43
2023/02/15 09:27:25;;;;;;;119.93;50.78;;;;;;;11.09;100.00;102471.81;5021010;28;20030;-44
2023/02/15 09:29:50;;;;;;;129.88;54.17;;;;;;;10.33;100.00;102463.63;5023767;28;20107;-44
2023/02/15 09:32:17;;;;;;;121.78;52.47;;;;;;;10.60;100.00;102467.47;5025018;28;20038;-44
2023/02/15 09:34:42;;;;;;;142.68;56.00;;;;;;;10.28;100.00;102465.91;5019596;28;20046;-43
2023/02/15 09:37:08;;;;;;;134.13;54.20;;;;;;;10.21;100.00;102465.56;5023015;28;20091;-44
2023/02/15 09:39:38;;;;;;;149.55;57.80;;;;;;;10.19;100.00;102467.56;5023197;28;20115;-44
2023/02/15 09:42:44;;;;;;;141.32;57.92;;;;;;;10.41;100.00;102468.31;5023553;28;20060;-42
2023/02/15 09:45:34;;;;;;;139.65;57.03;;;;;;;9.89;100.00;102471.16;5019365;28;20029;-44
2023/02/15 09:48:09;;;;;;;146.98;58.28;;;;;;;9.53;100.00;102472.59;5025456;28;20045;-44
2023/02/15 09:50:41;;;;;;;141.48;56.38;;;;;;;9.34;100.00;102470.69;5024866;28;20578;-44
2023/02/15 09:53:17;;;;;;;145.68;60.50;;;;;;;9.21;100.00;102482.47;5022941;28;20041;-42
2023/02/15 09:55:42;;;;;;;151.23;60.03;;;;;;;9.38;100.00;102478.34;5024431;28;20435;-46
2023/02/15 09:58:37;;;;;;;153.88;60.13;;;;;;;9.94;100.00;102485.06;5025111;28;20037;-44
2023/02/15 10:01:21;;;;;;;150.30;57.45;;;;;;;10.46;100.00;102484.91;5014775;28;20107;-43
2023/02/15 10:04:20;;;;;;;163.35;59.80;;;;;;;10.58;100.00;102475.69;5023425;28;20041;-46
2023/02/15 10:07:08;;;;;;;147.73;59.67;;;;;;;10.52;100.00;102474.41;5023590;28;20477;-44
2023/02/15 10:09:48;;;;;;;153.77;58.72;;;;;;;10.03;100.00;102478.88;5020376;28;20021;-44
2023/02/15 10:12:32;;;;;;;165.88;60.42;;;;;;;10.01;100.00;102474.63;5023506;28;20107;-45
2023/02/15 10:15:04;;;;;;;153.48;59.15;;;;;;;9.93;100.00;102475.31;5022421;28;20143;-43
2023/02/15 10:18:01;;;;;;;167.95;60.50;;;;;;;10.09;100.00;102482.84;5021772;28;20285;-43
2023/02/15 10:20:51;;;;;;;158.95;58.92;;;;;;;10.38;100.00;102468.63;5025017;28;20029;-43
2023/02/15 10:23:25;;;;;;;164.88;60.63;;;;;;;10.09;100.00;102472.94;5025760;28;20029;-43
2023/02/15 10:26:22;;;;;;;168.35;61.47;;;;;;;9.80;100.00;102467.47;5022587;28;20546;-43
2023/02/15 10:28:49;;;;;;;;;;;;;;;9.89;100.00;102472.00;5019243;28;20535;-43
2023/02/15 10:31:34;;;;;;;152.85;57.88;;;;;;;9.36;100.00;102468.72;5023554;28;20391;-44
2023/02/15 10:34:16;;;;;;;159.90;57.67;;;;;;;9.30;100.00;102453.97;5023713;28;20132;-44
2023/02/15 10:37:10;;;;;;;155.98;57.97;;;;;;;9.60;100.00;102453.09;5019871;28;20091;-44
2023/02/15 10:40:13;;;;;;;162.60;56.15;;;;;;;9.42;100.00;102443.97;5022378;28;20381;-43
2023/02/15 10:42:47;;;;;;;173.23;59.58;;;;;;;9.34;100.00;102433.06;5022434;28;20033;-43
2023/02/15 10:45:24;;;;;;;177.98;60.20;;;;;;;9.72;100.00;102436.91;5025096;28;20049;-43
2023/02/15 10:47:59;;;;;;;168.88;58.08;;;;;;;9.56;100.00;102432.03;5021021;28;20085;-45
2023/02/15 10:50:43;;;;;;;179.98;60.05;;;;;;;9.23;100.00;102425.94;5022963;28;20617;-43
2023/02/15 10:53:44;;;;;;;180.85;59.90;;;;;;;9.57;100.00;102428.34;5025093;28;20021;-44
2023/02/15 10:56:39;;;;;;;177.10;58.38;;;;;;;10.25;100.00;102423.94;5017384;28;20057;-44
2023/02/15 10:59:41;;;;;;;166.52;58.20;;;;;;;10.74;100.00;102424.81;5022142;28;20075;-44
2023/02/15 11:02:28;;;;;;;155.32;57.97;;;;;;;10.94;100.00;102420.22;5022752;28;20508;-44
2023/02/15 11:05:12;;;;;;;162.13;57.67;;;;;;;10.65;100.00;102417.56;5019261;28;20025;-43
2023/02/15 11:07:45;;;;;;;160.35;58.00;;;;;;;10.31;100.00;102439.56;5022930;28;20453;-44
2023/02/15 11:10:13;;;;;;;167.93;60.95;;;;;;;10.46;100.00;102439.13;5020499;28;20042;-44
2023/02/15 11:12:40;;;;;;;168.07;60.08;;;;;;;10.48;100.00;102445.25;5024330;28;20079;-42
2023/02/15 11:15:21;;;;;;;170.25;61.92;;;;;;;10.01;100.00;102431.56;5020722;28;20041;-44
2023/02/15 11:17:55;;;;;;;160.77;58.85;;;;;;;10.17;100.00;102423.81;5021859;28;20029;-45
2023/02/15 11:20:42;;;;;;;163.98;59.10;;;;;;;10.37;100.00;102421.97;5023466;28;20358;-45
2023/02/15 11:23:16;;;;;;;175.43;62.90;;;;;;;10.45;100.00;102421.28;5023701;28;20104;-44
2023/02/15 11:25:43;;;;;;;174.63;59.50;;;;;;;10.36;100.00;102422.97;5022782;28;20079;-46
2023/02/15 11:28:18;;;;;;;175.37;61.43;;;;;;;10.40;100.00;102423.53;5017790;28;20034;-45
2023/02/15 11:30:47;;;;;;;161.02;60.58;;;;;;;10.49;100.00;102412.78;5017989;28;20339;-45
2023/02/15 11:33:18;;;;;;;179.20;61.03;;;;;;;10.20;100.00;102414.59;5023483;28;20050;-45
2023/02/15 11:35:50;;;;;;;167.13;61.65;;;;;;;10.37;100.00;102411.22;5021676;28;20396;-44
2023/02/15 11:38:28;;;;;;;174.75;62.25;;;;;;;10.41;100.00;102388.41;5022839;28;20399;-44
2023/02/15 11:40:58;;;;;;;;;;;;;;;10.92;100.00;102395.25;5019046;28;20120;-43
2023/02/15 11:43:29;;;;;;;179.77;60.47;;;;;;;11.32;100.00;102391.44;5022527;28;19909;-44
2023/02/15 11:45:55;;;;;;;161.98;59.17;;;;;;;11.05;100.00;102402.19;5019652;28;20029;-43